Time;durP1;ratioP1;P1;durP2;ratioP2;P2;SDS_P1;SDS_P2;PMS_P1;PMS_P2;Temp;Humidity;BMP_temperature;BMP_pressure;BME280_temperature;BME280_humidity;BME280_pressure;Samples;Min_cycle;Max_cycle;Signal;HPM_P1;HPM_P2
2021/03/07 00:00:25;;;;;;;9.60;6.57;;;4.10;64.10;;;;;;5070758;28;20432;-64
2021/03/07 00:02:54;;;;;;;11.80;6.80;;;4.00;65.10;;;;;;5070090;28;20024;-65
2021/03/07 00:05:20;;;;;;;10.57;6.63;;;4.00;65.20;;;;;;5069333;28;20025;-66
2021/03/07 00:07:47;;;;;;;9.65;6.63;;;4.00;65.40;;;;;;5069887;28;20028;-65
2021/03/07 00:10:15;;;;;;;11.93;7.93;;;3.90;65.90;;;;;;5069217;28;20119;-65
2021/03/07 00:12:42;;;;;;;11.85;7.95;;;3.80;66.50;;;;;;5070981;28;20031;-66
2021/03/07 00:15:10;;;;;;;11.55;6.50;;;3.80;66.80;;;;;;5069455;28;20037;-67
2021/03/07 00:17:37;;;;;;;11.75;7.80;;;3.70;67.40;;;;;;5071171;28;20027;-66
2021/03/07 00:20:05;;;;;;;10.70;7.60;;;3.60;67.80;;;;;;5071167;28;20047;-66
2021/03/07 00:22:31;;;;;;;11.43;8.63;;;3.70;68.20;;;;;;5071183;28;20122;-66
2021/03/07 00:24:57;;;;;;;12.23;8.93;;;3.60;69.10;;;;;;5061107;28;20483;-66
2021/03/07 00:27:22;;;;;;;12.27;8.05;;;3.40;69.40;;;;;;5050549;28;20475;-65
2021/03/07 00:29:48;;;;;;;13.20;8.70;;;3.40;69.80;;;;;;5051378;28;20025;-67
2021/03/07 00:32:14;;;;;;;15.63;8.27;;;3.30;70.00;;;;;;5050556;28;20032;-66
2021/03/07 00:34:39;;;;;;;11.65;8.43;;;3.30;70.40;;;;;;5051413;28;20071;-64
2021/03/07 00:37:05;;;;;;;13.50;8.15;;;3.40;70.70;;;;;;5050538;28;20025;-65
2021/03/07 00:39:31;;;;;;;14.85;9.15;;;3.30;71.10;;;;;;5050802;28;20021;-67
2021/03/07 00:42:00;;;;;;;15.45;8.68;;;3.30;71.40;;;;;;5050694;28;20467;-66
2021/03/07 00:44:27;;;;;;;11.27;7.68;;;3.20;71.90;;;;;;5050493;28;20017;-64
2021/03/07 00:46:54;;;;;;;16.25;8.80;;;3.20;72.20;;;;;;5050421;28;20036;-66
2021/03/07 00:49:22;;;;;;;12.07;7.97;;;3.10;73.40;;;;;;5032207;28;20032;-65
2021/03/07 00:51:48;;;;;;;15.63;8.50;;;3.00;73.10;;;;;;5032660;28;20431;-64
2021/03/07 00:54:14;;;;;;;12.93;8.70;;;3.10;73.60;;;;;;5049770;28;20021;-65
2021/03/07 00:56:40;;;;;;;13.07;8.85;;;3.00;73.50;;;;;;5050326;28;20037;-65
2021/03/07 00:59:06;;;;;;;11.88;8.73;;;3.00;74.10;;;;;;5049862;28;20116;-65
2021/03/07 01:01:32;;;;;;;12.35;8.65;;;3.00;74.70;;;;;;5032537;28;20037;-65
2021/03/07 01:03:58;;;;;;;16.50;9.82;;;3.00;74.70;;;;;;5050323;28;20029;-65
2021/03/07 01:06:24;;;;;;;13.48;8.48;;;3.10;75.00;;;;;;5050650;28;20088;-65
2021/03/07 01:08:50;;;;;;;13.88;7.95;;;3.10;74.80;;;;;;5054413;28;20032;-64
2021/03/07 01:11:16;;;;;;;14.55;8.15;;;3.00;75.40;;;;;;5053627;28;20440;-65
2021/03/07 01:13:42;;;;;;;12.85;8.88;;;3.10;75.40;;;;;;5054933;28;20467;-64
2021/03/07 01:16:07;;;;;;;13.60;8.90;;;3.10;76.00;;;;;;5035665;28;20040;-66
2021/03/07 01:18:33;;;;;;;12.85;8.32;;;3.00;76.40;;;;;;5054335;28;20067;-64
2021/03/07 01:20:59;;;;;;;12.73;8.35;;;3.00;76.50;;;;;;5054482;28;20025;-65
2021/03/07 01:23:26;;;;;;;11.65;8.93;;;2.90;76.60;;;;;;5035832;28;20394;-64
2021/03/07 01:25:52;;;;;;;16.67;8.88;;;2.80;77.30;;;;;;5068008;28;20057;-64
2021/03/07 01:28:18;;;;;;;14.02;8.60;;;3.00;77.50;;;;;;5073456;28;20032;-64
2021/03/07 01:30:43;;;;;;;13.65;8.80;;;2.90;77.40;;;;;;5073027;28;20024;-65
2021/03/07 01:33:09;;;;;;;15.10;8.85;;;2.90;77.00;;;;;;5073881;28;20091;-65
2021/03/07 01:35:36;;;;;;;16.88;9.52;;;3.00;77.10;;;;;;5074016;28;20400;-65
2021/03/07 01:38:02;;;;;;;13.43;8.65;;;2.80;77.80;;;;;;5072901;28;20024;-65
2021/03/07 01:40:41;;;;;;;11.63;8.02;;;2.80;78.50;;;;;;5073607;28;20108;-66
2021/03/07 01:43:07;;;;;;;16.77;8.93;;;2.80;78.40;;;;;;5072070;28;20068;-65
2021/03/07 01:45:34;;;;;;;15.40;9.00;;;2.90;78.50;;;;;;5072651;28;20123;-65
2021/03/07 01:48:04;;;;;;;12.35;8.10;;;2.90;78.80;;;;;;5072556;28;20028;-65
2021/03/07 01:50:32;;;;;;;12.55;8.05;;;2.90;79.50;;;;;;5072007;28;20028;-64
2021/03/07 01:52:58;;;;;;;15.32;9.68;;;2.90;79.20;;;;;;5073705;28;20029;-65
2021/03/07 01:55:28;;;;;;;15.07;9.60;;;2.80;79.40;;;;;;5073161;28;20036;-64
2021/03/07 01:58:18;;;;;;;17.60;10.38;;;2.80;80.20;;;;;;5073835;28;20107;-65
2021/03/07 02:00:44;;;;;;;13.18;9.32;;;2.60;80.00;;;;;;5073855;28;20133;-65
2021/03/07 02:03:10;;;;;;;11.88;8.38;;;2.60;79.90;;;;;;5071522;28;20413;-64
2021/03/07 02:05:36;;;;;;;15.13;8.43;;;2.60;79.70;;;;;;5072207;28;20099;-64
2021/03/07 02:08:04;;;;;;;11.98;8.15;;;2.60;79.30;;;;;;5073701;28;20025;-64
2021/03/07 02:10:35;;;;;;;21.27;9.63;;;2.50;79.60;;;;;;5072978;28;20038;-64
2021/03/07 02:13:09;;;;;;;14.13;7.32;;;2.50;80.00;;;;;;5073850;28;20474;-65
2021/03/07 02:15:39;;;;;;;12.38;8.65;;;2.50;80.20;;;;;;5072420;28;20037;-64
2021/03/07 02:18:05;;;;;;;15.60;8.85;;;2.50;80.50;;;;;;5070787;28;20033;-65
2021/03/07 02:20:34;;;;;;;14.95;9.38;;;2.40;80.80;;;;;;5072693;28;20021;-65
2021/03/07 02:23:22;;;;;;;11.73;8.77;;;2.50;80.60;;;;;;5073216;28;20099;-65
2021/03/07 02:25:50;;;;;;;12.73;7.72;;;2.40;80.90;;;;;;5071764;28;20133;-65
2021/03/07 02:28:17;;;;;;;19.38;8.43;;;2.40;81.40;;;;;;5071023;28;20090;-65
2021/03/07 02:30:43;;;;;;;14.55;9.23;;;2.50;82.00;;;;;;5071946;28;20032;-65
2021/03/07 02:33:27;;;;;;;12.88;9.60;;;2.50;83.20;;;;;;5072005;28;20046;-64
2021/03/07 02:36:18;;;;;;;15.48;8.45;;;2.60;84.00;;;;;;5073062;28;20058;-65
2021/03/07 02:38:47;;;;;;;13.77;8.43;;;2.60;84.20;;;;;;5054388;28;20086;-64
2021/03/07 02:41:16;;;;;;;13.07;9.73;;;2.60;84.90;;;;;;5071179;28;20078;-65
2021/03/07 02:43:44;;;;;;;16.92;10.13;;;2.60;85.20;;;;;;5073210;28;20409;-66
2021/03/07 02:46:14;;;;;;;13.35;9.88;;;2.60;85.20;;;;;;5072557;28;20032;-69
2021/03/07 02:48:41;;;;;;;24.85;10.25;;;2.50;85.20;;;;;;5071280;28;20085;-64
2021/03/07 02:51:10;;;;;;;10.43;7.68;;;2.50;85.80;;;;;;5072658;28;20021;-64
2021/03/07 02:53:37;;;;;;;11.23;7.75;;;2.60;85.20;;;;;;5071588;28;20052;-64
2021/03/07 02:56:08;;;;;;;14.57;8.45;;;2.50;85.20;;;;;;5071485;28;20492;-65
2021/03/07 02:58:36;;;;;;;11.75;7.93;;;2.60;85.10;;;;;;5070928;28;20082;-65
2021/03/07 03:01:04;;;;;;;13.45;8.43;;;2.50;85.10;;;;;;5072522;28;20148;-64
2021/03/07 03:03:32;;;;;;;12.43;7.72;;;2.40;85.40;;;;;;5070679;28;20035;-64
2021/03/07 03:05:59;;;;;;;13.00;7.63;;;2.50;85.40;;;;;;5070848;28;20390;-64
2021/03/07 03:08:28;;;;;;;11.45;8.00;;;2.50;84.40;;;;;;5070415;28;20063;-65
2021/03/07 03:10:55;;;;;;;10.57;7.47;;;2.40;84.20;;;;;;5071014;28;20052;-65
2021/03/07 03:13:22;;;;;;;11.38;7.35;;;2.40;84.40;;;;;;5070201;28;20025;-65
2021/03/07 03:15:50;;;;;;;10.93;8.30;;;2.40;84.30;;;;;;5070734;28;20040;-64
2021/03/07 03:18:17;;;;;;;11.15;8.35;;;2.30;84.50;;;;;;5069837;28;20055;-64
2021/03/07 03:20:44;;;;;;;9.07;7.03;;;2.40;84.10;;;;;;5072224;28;20153;-65
2021/03/07 03:23:10;;;;;;;9.40;6.80;;;2.40;83.80;;;;;;5072039;28;20028;-65
2021/03/07 03:25:35;;;;;;;11.57;6.90;;;2.30;84.40;;;;;;5069896;28;20143;-65
2021/03/07 03:28:01;;;;;;;9.75;6.57;;;2.30;84.40;;;;;;5070792;28;20067;-65
2021/03/07 03:30:28;;;;;;;8.55;6.07;;;2.30;84.50;;;;;;5071010;28;20066;-65
2021/03/07 03:32:54;;;;;;;13.05;7.18;;;2.30;84.20;;;;;;5070349;28;20029;-65
2021/03/07 03:35:20;;;;;;;12.25;7.35;;;2.30;84.20;;;;;;5070875;28;20032;-64
2021/03/07 03:37:48;;;;;;;9.13;6.38;;;2.30;84.40;;;;;;5071557;28;20064;-64
2021/03/07 03:40:24;;;;;;;7.57;5.72;;;2.30;83.90;;;;;;5071012;28;20048;-65
2021/03/07 03:43:09;;;;;;;9.15;6.60;;;2.30;83.90;;;;;;5071645;28;20034;-64
2021/03/07 03:45:38;;;;;;;10.88;6.60;;;2.30;84.00;;;;;;5071013;28;20126;-64
2021/03/07 03:48:09;;;;;;;8.05;6.30;;;2.30;84.10;;;;;;5071411;28;20378;-65
2021/03/07 03:50:41;;;;;;;10.77;5.97;;;2.20;83.80;;;;;;5070990;28;20028;-65
2021/03/07 03:53:13;;;;;;;9.20;6.75;;;2.20;83.90;;;;;;5070309;28;20036;-65
2021/03/07 03:55:44;;;;;;;8.18;6.00;;;2.20;84.10;;;;;;5071305;28;20033;-65
2021/03/07 03:58:11;;;;;;;11.30;7.13;;;2.30;84.30;;;;;;5070358;28;20047;-65
2021/03/07 04:00:39;;;;;;;9.32;6.68;;;2.30;84.00;;;;;;5070840;28;20024;-65
2021/03/07 04:03:09;;;;;;;9.13;6.13;;;2.20;83.80;;;;;;5070984;28;20020;-65
2021/03/07 04:05:35;;;;;;;11.10;6.18;;;2.30;83.90;;;;;;5069349;28;20060;-66
2021/03/07 04:08:02;;;;;;;9.52;5.95;;;2.30;83.70;;;;;;5069996;28;20074;-65
2021/03/07 04:10:29;;;;;;;7.68;5.45;;;2.30;83.90;;;;;;5069478;28;20136;-65
2021/03/07 04:12:58;;;;;;;8.50;6.40;;;2.20;84.00;;;;;;5069929;28;20031;-66
2021/03/07 04:15:24;;;;;;;10.15;6.50;;;2.20;84.30;;;;;;5069163;28;20077;-64
2021/03/07 04:17:51;;;;;;;10.50;7.00;;;2.20;84.30;;;;;;5069819;28;20090;-64
2021/03/07 04:20:18;;;;;;;11.25;6.32;;;2.20;84.80;;;;;;5070245;28;20101;-65
2021/03/07 04:22:44;;;;;;;11.95;6.53;;;2.20;84.80;;;;;;5070910;28;20465;-63
2021/03/07 04:25:11;;;;;;;8.65;6.18;;;2.20;85.10;;;;;;5069491;28;20048;-64
2021/03/07 04:27:37;;;;;;;10.18;6.10;;;2.00;85.70;;;;;;5070600;28;20101;-63
2021/03/07 04:30:06;;;;;;;9.43;6.55;;;2.10;85.20;;;;;;5070913;28;20043;-64
2021/03/07 04:32:33;;;;;;;11.50;6.25;;;2.10;84.80;;;;;;5069170;28;20029;-64
2021/03/07 04:35:00;;;;;;;8.35;5.70;;;2.20;84.30;;;;;;5070912;28;20123;-64
2021/03/07 04:37:26;;;;;;;9.35;5.90;;;2.20;84.70;;;;;;5068990;28;20078;-64
2021/03/07 04:39:52;;;;;;;8.38;6.20;;;2.10;84.10;;;;;;5069617;28;20037;-64
2021/03/07 04:42:18;;;;;;;10.63;6.07;;;2.00;84.40;;;;;;5069751;28;20363;-63
2021/03/07 04:44:44;;;;;;;10.05;6.20;;;1.90;84.40;;;;;;5070896;28;20470;-64
2021/03/07 04:47:10;;;;;;;8.50;5.55;;;1.90;85.00;;;;;;5069597;28;20031;-64
2021/03/07 04:49:35;;;;;;;6.80;5.45;;;1.90;85.10;;;;;;5070280;28;20079;-64
2021/03/07 04:52:01;;;;;;;14.15;6.22;;;1.90;84.90;;;;;;5071189;28;20028;-64
2021/03/07 04:54:27;;;;;;;9.68;5.95;;;1.90;85.10;;;;;;5068971;28;20032;-63
2021/03/07 04:56:52;;;;;;;11.85;6.72;;;1.90;84.80;;;;;;5069305;28;20032;-64
2021/03/07 04:59:18;;;;;;;8.63;6.28;;;1.90;85.00;;;;;;5070150;28;20386;-68
2021/03/07 05:01:43;;;;;;;10.25;7.32;;;1.90;85.80;;;;;;5071020;28;20390;-64
2021/03/07 05:04:09;;;;;;;11.70;6.32;;;1.80;85.70;;;;;;5070508;28;20020;-64
2021/03/07 05:06:39;;;;;;;10.48;7.10;;;1.90;85.80;;;;;;5069998;28;20036;-66
2021/03/07 05:09:06;;;;;;;9.27;6.78;;;1.70;86.60;;;;;;5069594;28;20043;-65
2021/03/07 05:11:32;;;;;;;15.50;8.38;;;1.80;87.30;;;;;;5070138;28;20099;-64
2021/03/07 05:13:58;;;;;;;8.68;6.80;;;1.80;87.50;;;;;;5069426;28;20071;-64
2021/03/07 05:16:23;;;;;;;13.38;7.35;;;1.70;88.40;;;;;;5070064;28;20072;-64
2021/03/07 05:18:49;;;;;;;9.43;7.00;;;1.60;89.40;;;;;;5069171;28;20036;-64
2021/03/07 05:21:15;;;;;;;15.50;7.95;;;1.60;90.10;;;;;;5070372;28;20028;-64
2021/03/07 05:23:40;;;;;;;13.95;7.05;;;1.50;90.50;;;;;;5069974;28;20036;-64
2021/03/07 05:26:06;;;;;;;9.45;7.05;;;1.60;90.70;;;;;;5069041;28;20048;-64
2021/03/07 05:28:32;;;;;;;13.40;7.03;;;1.50;91.10;;;;;;5069620;28;20028;-63
2021/03/07 05:30:57;;;;;;;11.30;7.50;;;1.40;91.40;;;;;;5070160;28;20082;-63
2021/03/07 05:33:23;;;;;;;9.10;6.80;;;1.50;91.60;;;;;;5069865;28;20021;-64
2021/03/07 05:35:49;;;;;;;13.30;7.78;;;1.50;91.50;;;;;;5070414;28;20033;-64
2021/03/07 05:38:15;;;;;;;12.25;8.90;;;1.40;92.10;;;;;;5069009;28;20040;-64
2021/03/07 05:40:41;;;;;;;11.68;8.07;;;1.40;92.30;;;;;;5069919;28;20032;-63
2021/03/07 05:43:07;;;;;;;10.68;7.57;;;1.40;92.60;;;;;;5068822;28;20106;-63
2021/03/07 05:45:33;;;;;;;13.70;7.00;;;1.40;93.10;;;;;;5068351;28;20153;-63
2021/03/07 05:47:59;;;;;;;13.88;8.57;;;1.50;93.20;;;;;;5068882;28;20024;-64
2021/03/07 05:50:25;;;;;;;12.80;8.00;;;1.40;93.30;;;;;;5068531;28;20024;-64
2021/03/07 05:52:53;;;;;;;12.95;7.53;;;1.40;93.80;;;;;;5068657;28;20025;-64
2021/03/07 05:55:21;;;;;;;17.58;8.20;;;1.50;93.70;;;;;;5072365;28;20474;-64
2021/03/07 05:57:48;;;;;;;14.30;7.53;;;1.50;93.50;;;;;;5073524;28;20037;-64
2021/03/07 06:00:18;;;;;;;12.25;7.70;;;1.40;93.70;;;;;;5073750;28;20028;-64
2021/03/07 06:02:44;;;;;;;13.48;9.07;;;1.40;93.90;;;;;;5073090;28;20086;-64
2021/03/07 06:05:11;;;;;;;12.82;8.57;;;1.40;94.20;;;;;;5072520;28;20056;-64
2021/03/07 06:07:38;;;;;;;14.15;9.18;;;1.30;94.30;;;;;;5071606;28;20103;-63
2021/03/07 06:10:18;;;;;;;11.50;8.48;;;1.30;94.50;;;;;;5073514;28;20032;-64
2021/03/07 06:13:12;;;;;;;13.90;8.40;;;1.30;94.60;;;;;;5073049;28;20028;-64
2021/03/07 06:15:40;;;;;;;12.43;8.75;;;1.40;94.90;;;;;;5072606;28;20474;-64
2021/03/07 06:18:19;;;;;;;12.10;8.63;;;1.40;94.90;;;;;;5073377;28;20037;-64
2021/03/07 06:20:48;;;;;;;12.18;8.50;;;1.40;95.00;;;;;;5072920;28;20103;-63
2021/03/07 06:23:14;;;;;;;12.50;8.10;;;1.40;95.30;;;;;;5072003;28;20027;-64
2021/03/07 06:25:49;;;;;;;11.63;8.30;;;1.40;95.10;;;;;;5056425;28;20258;-64
2021/03/07 06:28:33;;;;;;;17.30;10.85;;;1.40;95.40;;;;;;5035488;28;20445;-64
2021/03/07 06:30:59;;;;;;;18.20;9.43;;;1.40;95.40;;;;;;5053269;28;20033;-64
2021/03/07 06:33:37;;;;;;;15.07;8.98;;;1.40;95.40;;;;;;5034665;28;20040;-63
2021/03/07 06:36:15;;;;;;;11.55;8.15;;;1.40;95.50;;;;;;5035311;28;20063;-63
2021/03/07 06:38:46;;;;;;;14.85;8.23;;;1.40;95.60;;;;;;5034619;28;20128;-63
2021/03/07 06:41:21;;;;;;;11.20;7.65;;;1.50;95.50;;;;;;5035146;28;20032;-64
2021/03/07 06:43:47;;;;;;;14.27;8.55;;;1.60;95.50;;;;;;5053033;28;20111;-64
2021/03/07 06:46:31;;;;;;;10.90;7.72;;;1.60;95.30;;;;;;5052801;28;20064;-64
2021/03/07 06:48:57;;;;;;;12.23;7.78;;;1.60;95.10;;;;;;5052703;28;20474;-65
2021/03/07 06:51:30;;;;;;;12.48;7.93;;;1.70;94.90;;;;;;5052848;28;20116;-64
2021/03/07 06:53:58;;;;;;;9.80;7.75;;;1.80;94.70;;;;;;5053076;28;20025;-65
2021/03/07 06:56:59;;;;;;;12.68;7.88;;;1.80;94.80;;;;;;5052808;28;20079;-64
2021/03/07 06:59:25;;;;;;;8.73;6.78;;;2.10;94.50;;;;;;4936006;29;20027;-68
2021/03/07 07:01:53;;;;;;;12.65;7.97;;;2.20;94.10;;;;;;5017864;28;20493;-64
2021/03/07 07:04:20;;;;;;;21.48;7.93;;;2.50;93.50;;;;;;5034246;28;20423;-64
2021/03/07 07:07:07;;;;;;;11.48;7.72;;;2.80;93.00;;;;;;5051675;28;20043;-64
2021/03/07 07:09:33;;;;;;;12.02;7.88;;;3.10;92.10;;;;;;5033722;28;20083;-64
2021/03/07 07:12:00;;;;;;;10.65;7.65;;;3.20;91.70;;;;;;5034127;28;20093;-64
2021/03/07 07:14:43;;;;;;;10.18;7.47;;;3.50;91.00;;;;;;5034102;28;20088;-69
2021/03/07 07:17:11;;;;;;;9.32;7.78;;;3.60;90.60;;;;;;5052343;28;20057;-65
2021/03/07 07:19:38;;;;;;;12.75;8.25;;;3.70;90.30;;;;;;5051375;28;20033;-64
2021/03/07 07:22:05;;;;;;;11.40;7.55;;;4.00;89.70;;;;;;5034265;28;20025;-64
2021/03/07 07:24:31;;;;;;;8.85;7.07;;;4.10;89.30;;;;;;5042927;28;20498;-65
2021/03/07 07:26:57;;;;;;;12.55;7.10;;;4.20;88.70;;;;;;5071977;28;20027;-65
2021/03/07 07:29:25;;;;;;;8.77;6.78;;;4.50;87.70;;;;;;5070693;28;20051;-65
2021/03/07 07:31:56;;;;;;;9.65;6.65;;;4.80;86.50;;;;;;5070359;28;20185;-65
2021/03/07 07:34:49;;;;;;;9.98;6.35;;;5.10;85.10;;;;;;5072062;28;20020;-64
2021/03/07 07:37:34;;;;;;;11.05;6.80;;;5.40;83.30;;;;;;5069183;28;20598;-65
2021/03/07 07:40:00;;;;;;;12.18;7.50;;;5.60;82.40;;;;;;5070569;28;20025;-65
2021/03/07 07:42:35;;;;;;;12.43;7.72;;;5.20;82.60;;;;;;5070257;28;20119;-64
2021/03/07 07:45:13;;;;;;;13.32;7.60;;;5.60;82.20;;;;;;5070588;28;20048;-65
2021/03/07 07:47:43;;;;;;;16.33;7.68;;;5.80;80.80;;;;;;5070825;28;20021;-65
2021/03/07 07:50:31;;;;;;;11.10;6.75;;;6.20;80.30;;;;;;5072109;28;20142;-64
2021/03/07 07:53:03;;;;;;;11.38;6.65;;;6.30;78.70;;;;;;5057216;28;20075;-65
2021/03/07 07:55:49;;;;;;;14.07;7.15;;;6.50;77.40;;;;;;5069635;28;20046;-66
2021/03/07 07:58:36;;;;;;;10.13;6.30;;;6.80;76.40;;;;;;5071073;28;20031;-65
2021/03/07 08:01:13;;;;;;;9.25;6.10;;;6.90;74.90;;;;;;5070923;28;20506;-65
2021/03/07 08:03:51;;;;;;;10.18;6.93;;;7.10;74.00;;;;;;5070010;28;20021;-66
2021/03/07 08:06:43;;;;;;;10.05;6.20;;;7.30;72.60;;;;;;5069621;28;20385;-65
2021/03/07 08:09:27;;;;;;;;;;;7.60;71.30;;;;;;5070267;28;20024;-65
2021/03/07 08:11:53;;;;;;;10.63;5.93;;;7.50;70.20;;;;;;5068781;28;19904;-65
2021/03/07 08:14:34;;;;;;;8.45;5.20;;;7.70;69.40;;;;;;5070861;28;20024;-66
2021/03/07 08:17:00;;;;;;;12.00;6.32;;;7.70;68.70;;;;;;5068752;28;20131;-64
2021/03/07 08:19:44;;;;;;;7.63;5.55;;;8.10;67.40;;;;;;5069251;28;20083;-65
2021/03/07 08:22:10;;;;;;;8.77;5.65;;;8.20;66.10;;;;;;5070418;28;20025;-65
2021/03/07 08:24:52;;;;;;;8.77;5.32;;;8.30;65.30;;;;;;5068309;28;20375;-64
2021/03/07 08:27:18;;;;;;;;;;;;;;;;;;5069732;28;20035;-65
2021/03/07 08:29:48;;;;;;;9.40;5.85;;;8.60;65.20;;;;;;5070259;28;19904;-65
2021/03/07 08:32:33;;;;;;;8.85;5.78;;;8.90;64.30;;;;;;5069884;28;20071;-66
2021/03/07 08:35:17;;;;;;;11.00;5.95;;;9.20;63.10;;;;;;5072902;28;20039;-63
2021/03/07 08:38:16;;;;;;;8.82;6.20;;;9.20;62.40;;;;;;5074063;28;20032;-65
2021/03/07 08:40:43;;;;;;;10.15;6.13;;;8.70;62.70;;;;;;5070239;28;20064;-66
2021/03/07 08:43:21;;;;;;;15.82;7.03;;;9.00;63.20;;;;;;5084479;28;20024;-65
2021/03/07 08:46:10;;;;;;;9.00;7.00;;;9.70;61.80;;;;;;5072132;28;20390;-64
2021/03/07 08:48:38;;;;;;;7.70;6.35;;;9.70;59.30;;;;;;5086517;28;20052;-66
2021/03/07 08:51:05;;;;;;;9.57;6.78;;;9.90;59.50;;;;;;5068686;28;20165;-65
2021/03/07 08:53:35;;;;;;;7.82;5.85;;;9.80;59.90;;;;;;5068491;28;20027;-69
2021/03/07 08:56:01;;;;;;;9.02;5.93;;;;;;;;;;5069511;28;20036;-66
2021/03/07 08:58:27;;;;;;;6.13;4.88;;;10.20;57.60;;;;;;5069520;28;20075;-66
2021/03/07 09:00:55;;;;;;;7.30;4.82;;;10.10;58.00;;;;;;5070316;28;20425;-64
2021/03/07 09:03:22;;;;;;;7.18;4.88;;;10.60;57.20;;;;;;5070847;28;20028;-66
2021/03/07 09:05:49;;;;;;;7.35;5.22;;;10.10;56.00;;;;;;5069005;28;20047;-67
2021/03/07 09:08:19;;;;;;;8.95;5.05;;;9.90;57.60;;;;;;5069645;28;20039;-63
2021/03/07 09:10:48;;;;;;;7.82;5.05;;;10.40;56.80;;;;;;5070480;28;20047;-65
2021/03/07 09:13:18;;;;;;;7.13;4.70;;;10.80;57.10;;;;;;5070578;28;20090;-64
2021/03/07 09:15:56;;;;;;;6.25;4.57;;;10.80;55.30;;;;;;5068716;28;20496;-65
2021/03/07 09:18:34;;;;;;;7.53;5.35;;;11.40;54.40;;;;;;5069274;28;20052;-65
2021/03/07 09:21:03;;;;;;;6.85;5.60;;;11.60;58.50;;;;;;5070499;28;20028;-65
2021/03/07 09:23:37;;;;;;;7.53;4.65;;;12.10;55.70;;;;;;5070300;28;20032;-66
2021/03/07 09:26:07;;;;;;;6.82;5.45;;;12.20;53.00;;;;;;5051992;28;20135;-66
2021/03/07 09:28:34;;;;;;;8.13;5.05;;;11.90;52.40;;;;;;5053265;28;20166;-68
2021/03/07 09:31:02;;;;;;;7.53;5.45;;;11.30;53.10;;;;;;5054310;28;20033;-66
2021/03/07 09:33:28;;;;;;;7.00;4.65;;;10.40;54.40;;;;;;5054321;28;20025;-65
2021/03/07 09:36:11;;;;;;;8.57;4.85;;;10.50;55.30;;;;;;5035779;28;20037;-66
2021/03/07 09:38:45;;;;;;;7.30;4.90;;;10.50;54.20;;;;;;5053351;28;20104;-67
2021/03/07 09:41:13;;;;;;;10.93;6.20;;;10.70;52.20;;;;;;5035811;28;20100;-67
2021/03/07 09:43:42;;;;;;;9.00;5.72;;;11.20;53.70;;;;;;5053867;28;20025;-67
2021/03/07 09:46:10;;;;;;;5.45;4.45;;;11.90;51.90;;;;;;5053954;28;20447;-66
2021/03/07 09:48:37;;;;;;;17.33;4.80;;;11.90;50.90;;;;;;5035468;28;20435;-68
2021/03/07 09:51:05;;;;;;;5.35;4.43;;;11.10;51.30;;;;;;5035610;28;20029;-66
2021/03/07 09:53:34;;;;;;;5.15;4.43;;;11.10;52.10;;;;;;5035966;28;20495;-66
2021/03/07 09:56:00;;;;;;;8.07;4.72;;;11.30;52.20;;;;;;5036226;28;20492;-67
2021/03/07 09:58:36;;;;;;;11.35;5.63;;;12.30;52.50;;;;;;5035912;28;20111;-67
2021/03/07 10:01:04;;;;;;;6.05;4.85;;;12.60;50.50;;;;;;5053702;28;20493;-66
2021/03/07 10:03:32;;;;;;;7.93;5.03;;;13.00;49.50;;;;;;5053698;28;20480;-66
2021/03/07 10:06:18;;;;;;;8.52;5.50;;;13.40;50.00;;;;;;5035073;28;20047;-67
2021/03/07 10:08:46;;;;;;;7.03;5.13;;;13.60;49.00;;;;;;5052769;28;20078;-67
2021/03/07 10:11:14;;;;;;;7.80;5.05;;;13.50;48.80;;;;;;5053623;28;20025;-66
2021/03/07 10:13:41;;;;;;;7.82;5.18;;;13.00;48.60;;;;;;5035058;28;20025;-66
2021/03/07 10:16:08;;;;;;;10.98;5.45;;;12.90;48.80;;;;;;5053304;28;20036;-66
2021/03/07 10:18:34;;;;;;;5.38;4.22;;;13.20;48.40;;;;;;5035201;28;20061;-66
2021/03/07 10:21:00;;;;;;;7.68;4.97;;;13.70;47.90;;;;;;5052154;28;20474;-66
2021/03/07 10:23:32;;;;;;;6.13;4.47;;;13.90;46.20;;;;;;5053390;28;20033;-66
2021/03/07 10:25:58;;;;;;;8.23;5.68;;;14.00;47.20;;;;;;5052111;28;20148;-67
2021/03/07 10:28:26;;;;;;;8.90;4.05;;;14.20;45.30;;;;;;5035057;28;20033;-66
2021/03/07 10:30:54;;;;;;;4.05;3.25;;;14.70;45.80;;;;;;5052422;28;20149;-66
2021/03/07 10:33:23;;;;;;;4.43;3.80;;;14.60;44.80;;;;;;5052666;28;20021;-66
2021/03/07 10:36:07;;;;;;;5.20;3.95;;;14.60;43.00;;;;;;5034186;28;20450;-68
2021/03/07 10:38:44;;;;;;;5.30;3.83;;;14.80;41.60;;;;;;5052306;28;20079;-65
2021/03/07 10:41:20;;;;;;;4.63;4.22;;;15.10;41.80;;;;;;5035097;28;20044;-65
2021/03/07 10:43:51;;;;;;;7.55;3.55;;;15.10;41.40;;;;;;5034094;28;20128;-66
2021/03/07 10:46:38;;;;;;;5.38;4.22;;;15.40;42.40;;;;;;5034432;28;20025;-66
2021/03/07 10:49:08;;;;;;;5.15;4.32;;;15.30;41.10;;;;;;5034819;28;20036;-66
2021/03/07 10:51:35;;;;;;;8.73;4.78;;;14.90;41.50;;;;;;5035208;28;20033;-66
2021/03/07 10:54:01;;;;;;;5.85;4.40;;;15.00;42.40;;;;;;5034089;28;20025;-66
2021/03/07 10:56:31;;;;;;;6.18;3.90;;;15.40;41.30;;;;;;5052380;28;20098;-67
2021/03/07 10:58:58;;;;;;;4.15;3.38;;;15.30;41.10;;;;;;5051937;28;20079;-67
2021/03/07 11:01:24;;;;;;;4.32;3.33;;;15.20;40.00;;;;;;5034463;28;20130;-67
2021/03/07 11:03:50;;;;;;;4.30;3.35;;;15.50;39.90;;;;;;5051653;28;20025;-66
2021/03/07 11:06:18;;;;;;;5.85;3.35;;;15.90;39.10;;;;;;5034159;28;20036;-66
2021/03/07 11:08:45;;;;;;;5.32;3.10;;;16.00;39.00;;;;;;5051645;28;20033;-67
2021/03/07 11:11:11;;;;;;;4.25;3.65;;;16.10;38.90;;;;;;5034169;28;20490;-67
2021/03/07 11:13:36;;;;;;;8.93;4.00;;;15.90;39.80;;;;;;5052202;28;20037;-65
2021/03/07 11:16:03;;;;;;;5.80;3.58;;;15.80;40.20;;;;;;5051217;28;20040;-66
2021/03/07 11:18:29;;;;;;;4.20;3.33;;;16.40;41.40;;;;;;5051717;28;20483;-66
2021/03/07 11:20:55;;;;;;;5.88;3.80;;;16.50;38.70;;;;;;5033184;28;20060;-66
2021/03/07 11:23:20;;;;;;;5.07;3.83;;;16.80;38.20;;;;;;5033739;28;20029;-65
2021/03/07 11:25:46;;;;;;;5.53;3.47;;;16.70;38.90;;;;;;5051331;28;20091;-66
2021/03/07 11:28:12;;;;;;;3.85;3.20;;;16.60;37.90;;;;;;5051409;28;20070;-66
2021/03/07 11:30:37;;;;;;;4.82;3.35;;;17.00;37.30;;;;;;5033842;28;20025;-66
2021/03/07 11:33:03;;;;;;;5.30;3.45;;;17.40;36.30;;;;;;5033147;28;20029;-66
2021/03/07 11:35:29;;;;;;;6.75;3.17;;;17.40;36.60;;;;;;5051446;28;20187;-67
2021/03/07 11:37:57;;;;;;;6.03;3.92;;;16.70;35.70;;;;;;5032866;28;20060;-65
2021/03/07 11:40:23;;;;;;;3.63;3.10;;;15.90;37.10;;;;;;5033031;28;20044;-67
2021/03/07 11:42:49;;;;;;;3.67;2.72;;;16.10;37.50;;;;;;5032840;28;20032;-66
2021/03/07 11:45:15;;;;;;;5.60;3.00;;;16.40;36.50;;;;;;5051181;28;20032;-66
2021/03/07 11:47:41;;;;;;;4.43;3.35;;;16.70;35.80;;;;;;5051325;28;20025;-69
2021/03/07 11:50:08;;;;;;;4.03;2.88;;;17.00;35.90;;;;;;5051155;28;20377;-67
2021/03/07 11:52:34;;;;;;;11.98;3.10;;;17.10;35.30;;;;;;5050877;28;20043;-67
2021/03/07 11:55:00;;;;;;;3.35;2.70;;;17.30;35.30;;;;;;5032621;28;20024;-67
2021/03/07 11:57:25;;;;;;;4.90;3.30;;;17.60;34.20;;;;;;5051085;28;20467;-66
2021/03/07 11:59:51;;;;;;;4.47;3.05;;;17.50;33.90;;;;;;5032513;28;20028;-66
2021/03/07 12:02:17;;;;;;;5.03;3.35;;;17.90;34.50;;;;;;5051319;28;20108;-67
2021/03/07 12:04:43;;;;;;;3.13;2.80;;;18.00;34.40;;;;;;5032608;28;20381;-68
2021/03/07 12:07:08;;;;;;;3.13;2.78;;;17.30;33.30;;;;;;5032846;28;20072;-67
2021/03/07 12:09:34;;;;;;;3.38;2.58;;;16.90;34.10;;;;;;5050901;28;20040;-66
2021/03/07 12:12:00;;;;;;;4.03;2.85;;;16.60;33.00;;;;;;5049797;28;20125;-67
2021/03/07 12:14:26;;;;;;;3.20;2.72;;;16.10;33.50;;;;;;5032785;28;20033;-66
2021/03/07 12:16:53;;;;;;;4.53;3.00;;;16.20;33.90;;;;;;5050091;28;20029;-67
2021/03/07 12:19:19;;;;;;;3.28;2.65;;;16.30;34.70;;;;;;5050820;28;20087;-67
2021/03/07 12:21:44;;;;;;;3.42;2.45;;;16.80;34.20;;;;;;5050380;28;20029;-67
2021/03/07 12:24:10;;;;;;;4.05;3.22;;;16.90;33.50;;;;;;5050500;28;20544;-67
2021/03/07 12:26:36;;;;;;;12.10;3.55;;;17.10;33.30;;;;;;5033014;28;20063;-66
2021/03/07 12:29:02;;;;;;;8.65;2.85;;;17.40;34.20;;;;;;5050122;28;20025;-66
2021/03/07 12:31:29;;;;;;;3.80;3.30;;;17.80;33.70;;;;;;5032720;28;20482;-66
2021/03/07 12:33:54;;;;;;;4.32;3.63;;;17.80;32.90;;;;;;5050354;28;20067;-66
2021/03/07 12:36:20;;;;;;;5.15;2.92;;;18.00;32.60;;;;;;5050949;28;20061;-66
2021/03/07 12:38:46;;;;;;;4.03;3.28;;;17.70;32.90;;;;;;5050066;28;20028;-67
2021/03/07 12:41:11;;;;;;;5.35;2.83;;;17.60;32.60;;;;;;5050379;28;20120;-66
2021/03/07 12:43:37;;;;;;;3.33;2.60;;;18.00;32.70;;;;;;5032402;28;20454;-66
2021/03/07 12:46:03;;;;;;;3.03;2.72;;;18.30;32.00;;;;;;5031703;28;20045;-66
2021/03/07 12:48:28;;;;;;;4.63;2.83;;;18.30;31.60;;;;;;5032552;28;20021;-66
2021/03/07 12:50:54;;;;;;;4.32;3.50;;;18.50;30.90;;;;;;5050141;28;20025;-66
2021/03/07 12:53:20;;;;;;;3.63;2.53;;;17.80;31.80;;;;;;5050492;28;20087;-67
2021/03/07 12:55:45;;;;;;;3.58;2.70;;;17.40;31.60;;;;;;5031852;28;20025;-68
2021/03/07 12:58:11;;;;;;;4.35;3.08;;;17.80;32.10;;;;;;5032634;28;20057;-67
2021/03/07 13:00:37;;;;;;;4.38;3.40;;;17.90;32.20;;;;;;5050365;28;20420;-68